Haramachi Maru — JBML — position and weather

sailwx.info

Track history (hours):
 
Tides and Currents Weather Stations Pressure Air Temp Water Temp Dewpoint Dewpoint Depression Visibility Wind Speed Wind Dir Waves Ship Positions

Haramachi Maru

Last reported at 2016-Jun-18 11:23 UTC. Time now 2016-Dec-04 08:17 UTC.
Position S 26°55' E 153°50'.
Warning: this ship's position is months out of date.

Length 239.8 m; beam 43 m.

Type: Cargo ship. MMSI: 431106000.

Date/timePositionNaut miles runAvg speedWind from/ knotsBaromVisibWave heightAir tempDewpointWater temp
2016-Jun-18 11:23S 26°55' E 153°50'4411.5
2016-Jun-18 07:33S 27°39' E 153°51'1111.1
2016-Jun-18 06:34S 27°50' E 153°50'1211.0
2016-Jun-18 05:28S 28°02' E 153°50'27810.2
2016-Jun-17 02:05S 32°33' E 152°39'611.0
2016-Jun-17 01:34S 32°38' E 152°35'1010.5
2016-Jun-17 00:34S 32°47' E 152°28'10 9.6
2016-Jun-16 23:33S 32°54' E 152°20'1010.2
2016-Jun-16 22:34S 32°55' E 152°08'1110.9
2016-Jun-16 21:33S 32°56' E 151°55'7 7.2
2016-Jun-16 20:33S 32°55' E 151°47'2 2.1
2016-Jun-16 19:33S 32°53' E 151°46'0 0.0
2016-Jun-16 18:33S 32°53' E 151°46'0 0.0
2016-Jun-16 17:33S 32°53' E 151°46'0 0.0
2016-Jun-16 16:30S 32°53' E 151°46'0 0.0
2016-Jun-16 15:33S 32°53' E 151°46'0 0.0
2016-Jun-16 14:33S 32°53' E 151°46'0 0.0
2016-Jun-16 13:33S 32°53' E 151°46'0 0.0
2016-Jun-16 12:30S 32°53' E 151°46'0 0.0
2016-Jun-16 11:30S 32°53' E 151°46'0 0.0
2016-Jun-16 10:33S 32°53' E 151°46'0 0.0
2016-Jun-16 09:30S 32°53' E 151°46'0 0.0
2016-Jun-16 08:27S 32°53' E 151°46'0 0.0
2016-Jun-16 07:30S 32°53' E 151°46'0 0.0
2016-Jun-16 06:30S 32°53' E 151°46'0 0.0
2016-Jun-16 05:33S 32°53' E 151°46'0 0.0
2016-Jun-16 04:33S 32°53' E 151°46'0 0.0
2016-Jun-16 03:30S 32°53' E 151°46'0 0.0
2016-Jun-16 02:33S 32°53' E 151°46'2 2.4
2016-Jun-16 01:34S 32°55' E 151°47'6 6.1
2016-Jun-16 00:33S 32°60' E 151°52'3 3.1
2016-Jun-15 23:33S 33°01' E 151°56'2 2.4
2016-Jun-15 22:33S 33°02' E 151°58'1 1.4
2016-Jun-15 21:33S 33°02' E 151°56'4 3.5
2016-Jun-15 20:33S 33°05' E 151°59'1 0.5
2016-Jun-15 19:33S 33°05' E 151°59'1 0.6
2016-Jun-15 18:33S 33°04' E 152°00'1 0.5
2016-Jun-15 17:33S 33°04' E 152°00'6 5.6
2016-Jun-15 16:33S 32°58' E 152°00'1413.8
2016-Jun-15 15:33S 32°54' E 152°16'1313.3
2016-Jun-15 14:33S 32°47' E 152°29'1313.3
2016-Jun-15 13:33S 32°35' E 152°37'1513.0
2016-Jun-15 12:24S 32°22' E 152°46'31412.5
2016-Jun-14 11:12S 27°13' E 153°51'711.5
2016-Jun-14 10:33S 27°06' E 153°51'  
Track history (hours):
 
Tides and Currents Weather Stations Pressure Air Temp Water Temp Dewpoint Dewpoint Depression Visibility Wind Speed Wind Dir Waves Ship Positions

Haramachi Maru

Last reported at 2016-Jun-18 11:23 UTC. Time now 2016-Dec-04 08:17 UTC.
Position S 26°55' E 153°50'.
Warning: this ship's position is months out of date.

Length 239.8 m; beam 43 m.

Type: Cargo ship. MMSI: 431106000.

Date/timePositionNaut miles runAvg speedWind from/ knotsBaromVisibWave heightAir tempDewpointWater temp
2016-Jun-18 11:23S 26°55' E 153°50'4411.5
2016-Jun-18 07:33S 27°39' E 153°51'1111.1
2016-Jun-18 06:34S 27°50' E 153°50'1211.0
2016-Jun-18 05:28S 28°02' E 153°50'27810.2
2016-Jun-17 02:05S 32°33' E 152°39'611.0
2016-Jun-17 01:34S 32°38' E 152°35'1010.5
2016-Jun-17 00:34S 32°47' E 152°28'10 9.6
2016-Jun-16 23:33S 32°54' E 152°20'1010.2
2016-Jun-16 22:34S 32°55' E 152°08'1110.9
2016-Jun-16 21:33S 32°56' E 151°55'7 7.2
2016-Jun-16 20:33S 32°55' E 151°47'2 2.1
2016-Jun-16 19:33S 32°53' E 151°46'0 0.0
2016-Jun-16 18:33S 32°53' E 151°46'0 0.0
2016-Jun-16 17:33S 32°53' E 151°46'0 0.0
2016-Jun-16 16:30S 32°53' E 151°46'0 0.0
2016-Jun-16 15:33S 32°53' E 151°46'0 0.0
2016-Jun-16 14:33S 32°53' E 151°46'0 0.0
2016-Jun-16 13:33S 32°53' E 151°46'0 0.0
2016-Jun-16 12:30S 32°53' E 151°46'0 0.0
2016-Jun-16 11:30S 32°53' E 151°46'0 0.0
2016-Jun-16 10:33S 32°53' E 151°46'0 0.0
2016-Jun-16 09:30S 32°53' E 151°46'0 0.0
2016-Jun-16 08:27S 32°53' E 151°46'0 0.0
2016-Jun-16 07:30S 32°53' E 151°46'0 0.0
2016-Jun-16 06:30S 32°53' E 151°46'0 0.0
2016-Jun-16 05:33S 32°53' E 151°46'0 0.0
2016-Jun-16 04:33S 32°53' E 151°46'0 0.0
2016-Jun-16 03:30S 32°53' E 151°46'0 0.0
2016-Jun-16 02:33S 32°53' E 151°46'2 2.4
2016-Jun-16 01:34S 32°55' E 151°47'6 6.1
2016-Jun-16 00:33S 32°60' E 151°52'3 3.1
2016-Jun-15 23:33S 33°01' E 151°56'2 2.4
2016-Jun-15 22:33S 33°02' E 151°58'1 1.4
2016-Jun-15 21:33S 33°02' E 151°56'4 3.5
2016-Jun-15 20:33S 33°05' E 151°59'1 0.5
2016-Jun-15 19:33S 33°05' E 151°59'1 0.6
2016-Jun-15 18:33S 33°04' E 152°00'1 0.5
2016-Jun-15 17:33S 33°04' E 152°00'6 5.6
2016-Jun-15 16:33S 32°58' E 152°00'1413.8
2016-Jun-15 15:33S 32°54' E 152°16'1313.3
2016-Jun-15 14:33S 32°47' E 152°29'1313.3
2016-Jun-15 13:33S 32°35' E 152°37'1513.0
2016-Jun-15 12:24S 32°22' E 152°46'31412.5
2016-Jun-14 11:12S 27°13' E 153°51'711.5
2016-Jun-14 10:33S 27°06' E 153°51'  

Dump ship's entire track history